createdAt,value
2019-06-08T00:01:53.651Z,11.30
2019-06-08T00:04:24.517Z,11.30
2019-06-08T00:06:54.356Z,11.20
2019-06-08T00:09:25.810Z,11.20
2019-06-08T00:11:55.614Z,11.10
2019-06-08T00:14:25.670Z,11.00
2019-06-08T00:16:55.598Z,10.90
2019-06-08T00:19:25.415Z,10.90
2019-06-08T00:21:55.583Z,10.90
2019-06-08T00:24:25.452Z,10.90
2019-06-08T00:26:55.268Z,10.90
2019-06-08T00:29:25.460Z,10.90
2019-06-08T00:31:55.289Z,10.80
2019-06-08T00:34:25.171Z,10.80
2019-06-08T00:36:55.281Z,10.90
2019-06-08T00:39:25.199Z,10.90
2019-06-08T00:41:55.317Z,10.80
2019-06-08T00:44:25.921Z,10.80
2019-06-08T00:46:55.757Z,10.80
2019-06-08T00:49:25.541Z,10.70
2019-06-08T00:51:56.003Z,10.70
2019-06-08T00:54:25.895Z,10.60
2019-06-08T00:56:56.590Z,10.70
2019-06-08T00:59:26.869Z,10.70
2019-06-08T01:01:56.707Z,10.70
2019-06-08T01:04:27.195Z,10.70
2019-06-08T01:06:57.102Z,10.70
2019-06-08T01:09:28.529Z,10.70
2019-06-08T01:11:58.327Z,10.60
2019-06-08T01:14:29.127Z,10.70
2019-06-08T01:16:59.139Z,10.60
2019-06-08T01:19:29.653Z,10.60
2019-06-08T01:22:00.709Z,10.60
2019-06-08T01:24:30.537Z,10.60
2019-06-08T01:27:00.776Z,10.60
2019-06-08T01:29:30.624Z,10.50
2019-06-08T01:32:00.572Z,10.50
2019-06-08T01:34:31.075Z,10.50
2019-06-08T01:37:01.582Z,10.40
2019-06-08T01:39:32.496Z,10.40
2019-06-08T01:42:02.698Z,10.40
2019-06-08T01:44:32.499Z,10.50
2019-06-08T01:47:02.485Z,10.50
2019-06-08T01:49:32.596Z,10.50
2019-06-08T01:52:02.589Z,10.50
2019-06-08T01:54:33.288Z,10.40
2019-06-08T01:57:04.401Z,10.40
2019-06-08T01:59:34.803Z,10.40
2019-06-08T02:02:04.734Z,10.30
2019-06-08T02:04:34.833Z,10.30
2019-06-08T02:07:05.560Z,10.30
2019-06-08T02:09:36.313Z,10.30
2019-06-08T02:12:06.499Z,10.20
2019-06-08T02:14:36.761Z,10.20
2019-06-08T02:17:06.605Z,10.10
2019-06-08T02:19:36.795Z,10.00
2019-06-08T02:22:06.626Z,10.00
2019-06-08T02:24:36.465Z,9.90
2019-06-08T02:27:06.558Z,10.00
2019-06-08T02:29:36.862Z,10.00
2019-06-08T02:32:06.714Z,10.00
2019-06-08T02:34:38.181Z,10.00
2019-06-08T02:37:08.044Z,10.00
2019-06-08T02:39:39.881Z,10.00
2019-06-08T02:42:10.059Z,10.10
2019-06-08T02:44:40.691Z,10.10
2019-06-08T02:47:11.383Z,10.10
2019-06-08T02:49:41.202Z,10.20
2019-06-08T02:52:11.494Z,10.20
2019-06-08T02:54:41.627Z,10.20
2019-06-08T02:57:13.848Z,10.20
2019-06-08T02:59:45.663Z,10.30
2019-06-08T03:02:17.844Z,10.30
2019-06-08T03:04:48.927Z,10.40
2019-06-08T03:07:20.029Z,10.40
2019-06-08T03:09:53.101Z,10.40
2019-06-08T03:12:26.008Z,10.50
2019-06-08T03:14:56.078Z,10.50
2019-06-08T03:17:26.158Z,10.50
2019-06-08T03:19:55.967Z,10.50
2019-06-08T03:22:25.802Z,10.60
2019-06-08T03:24:56.090Z,10.60
2019-06-08T03:27:26.052Z,10.60
2019-06-08T03:29:55.847Z,10.60
2019-06-08T03:32:26.063Z,10.60
2019-06-08T03:34:57.200Z,10.70
2019-06-08T03:37:27.589Z,10.70
2019-06-08T03:39:57.751Z,10.70
2019-06-08T03:42:28.397Z,10.70
2019-06-08T03:44:58.208Z,10.70
2019-06-08T03:47:28.172Z,10.70
2019-06-08T03:49:58.091Z,10.70
2019-06-08T03:52:27.905Z,10.70
2019-06-08T03:54:57.746Z,10.80
2019-06-08T03:57:28.102Z,10.80
2019-06-08T03:59:57.962Z,10.80
2019-06-08T04:02:27.797Z,10.80
2019-06-08T04:04:57.834Z,10.90
2019-06-08T04:07:27.697Z,10.90
2019-06-08T04:09:58.281Z,10.90
2019-06-08T04:12:28.158Z,10.90
2019-06-08T04:14:58.038Z,10.90
2019-06-08T04:17:28.238Z,10.90
2019-06-08T04:20:10.126Z,10.90
2019-06-08T04:22:30.335Z,10.90
2019-06-08T04:25:00.335Z,10.90
2019-06-08T04:27:30.269Z,10.90
2019-06-08T04:30:00.222Z,11.00
2019-06-08T04:32:30.090Z,11.00
2019-06-08T04:34:59.915Z,11.00
2019-06-08T04:37:30.072Z,11.10
2019-06-08T04:40:00.373Z,11.20
2019-06-08T04:42:30.166Z,11.20
2019-06-08T04:44:59.981Z,11.30
2019-06-08T04:47:30.019Z,11.40
2019-06-08T04:49:59.891Z,11.40
2019-06-08T04:52:29.733Z,11.50
2019-06-08T04:55:00.034Z,11.40
2019-06-08T04:57:30.118Z,11.50
2019-06-08T05:00:11.304Z,11.40
2019-06-08T05:02:32.097Z,11.40
2019-06-08T05:05:02.131Z,11.40
2019-06-08T05:07:31.930Z,11.40
2019-06-08T05:10:01.779Z,11.40
2019-06-08T05:12:32.475Z,11.40
2019-06-08T05:15:02.303Z,11.50
2019-06-08T05:17:32.133Z,11.60
2019-06-08T05:20:02.587Z,11.60
2019-06-08T05:22:32.400Z,11.60
2019-06-08T05:25:02.295Z,11.70
2019-06-08T05:27:32.340Z,11.70
2019-06-08T05:30:08.492Z,11.70
2019-06-08T05:32:33.616Z,11.80
2019-06-08T05:35:05.137Z,11.80
2019-06-08T05:37:35.117Z,11.80
2019-06-08T05:40:11.579Z,11.90
2019-06-08T05:42:42.804Z,11.90
2019-06-08T05:45:14.667Z,11.90
2019-06-08T05:47:45.827Z,12.00
2019-06-08T05:50:15.793Z,12.00
2019-06-08T05:52:45.881Z,12.00
2019-06-08T05:55:16.314Z,12.10
2019-06-08T05:57:46.865Z,12.10
2019-06-08T06:00:17.071Z,12.20
2019-06-08T06:02:47.022Z,12.20
2019-06-08T06:05:16.976Z,12.20
2019-06-08T06:07:46.911Z,12.20
2019-06-08T06:10:17.558Z,12.20
2019-06-08T06:12:47.447Z,12.30
2019-06-08T06:15:17.265Z,12.30
2019-06-08T06:17:48.456Z,12.40
2019-06-08T06:20:19.307Z,12.50
2019-06-08T06:22:49.494Z,12.50
2019-06-08T06:25:19.522Z,12.60
2019-06-08T06:27:49.696Z,12.60
2019-06-08T06:30:20.096Z,12.70
2019-06-08T06:32:50.223Z,12.80
2019-06-08T06:35:20.049Z,12.90
2019-06-08T06:37:50.236Z,12.90
2019-06-08T06:40:21.158Z,12.90
2019-06-08T06:42:52.390Z,13.00
2019-06-08T06:45:23.425Z,13.00
2019-06-08T06:47:54.057Z,12.90
2019-06-08T06:50:24.676Z,12.90
2019-06-08T06:53:07.717Z,12.80
2019-06-08T06:55:38.028Z,12.80
2019-06-08T06:58:07.824Z,12.70
2019-06-08T07:00:37.675Z,12.70
2019-06-08T07:03:07.994Z,12.60
2019-06-08T07:05:37.800Z,12.60
2019-06-08T07:08:07.654Z,12.60
2019-06-08T07:10:37.909Z,12.60
2019-06-08T07:13:07.955Z,12.60
2019-06-08T07:15:41.732Z,12.70
2019-06-08T07:18:09.291Z,12.70
2019-06-08T07:20:39.094Z,12.70
2019-06-08T07:23:08.938Z,12.80
2019-06-08T07:25:38.747Z,12.90
2019-06-08T07:28:08.614Z,12.90
2019-06-08T07:30:38.463Z,13.00
2019-06-08T07:33:08.483Z,13.00
2019-06-08T07:35:38.498Z,13.10
2019-06-08T07:38:08.607Z,13.30
2019-06-08T07:40:38.357Z,13.30
2019-06-08T07:43:08.259Z,13.30
2019-06-08T07:45:38.302Z,13.40
2019-06-08T07:48:09.010Z,13.40
2019-06-08T07:50:38.931Z,13.40
2019-06-08T07:53:08.965Z,13.50
2019-06-08T07:55:38.927Z,13.70
2019-06-08T07:58:08.939Z,13.70
2019-06-08T08:00:38.769Z,13.80
2019-06-08T08:03:08.774Z,13.80
2019-06-08T08:05:38.654Z,13.90
2019-06-08T08:08:08.676Z,13.90
2019-06-08T08:10:38.656Z,13.80
2019-06-08T08:13:08.658Z,13.80
2019-06-08T08:15:38.720Z,13.70
2019-06-08T08:18:08.809Z,13.70
2019-06-08T08:20:38.602Z,13.60
2019-06-08T08:23:09.218Z,13.60
2019-06-08T08:25:39.444Z,13.50
2019-06-08T08:28:09.235Z,13.50
2019-06-08T08:30:39.061Z,13.50
2019-06-08T08:33:09.157Z,13.50
2019-06-08T08:35:38.949Z,13.50
2019-06-08T08:38:08.788Z,13.50
2019-06-08T08:40:38.931Z,13.40
2019-06-08T08:43:09.390Z,13.50
2019-06-08T08:45:40.507Z,13.50
2019-06-08T08:48:24.585Z,13.60
2019-06-08T08:50:41.732Z,13.70
2019-06-08T08:53:11.614Z,13.70
2019-06-08T08:55:41.402Z,13.80
2019-06-08T08:58:11.257Z,13.80
2019-06-08T09:00:41.349Z,13.80
2019-06-08T09:03:25.259Z,13.90
2019-06-08T09:05:42.603Z,13.90
2019-06-08T09:08:12.423Z,13.90
2019-06-08T09:10:42.748Z,13.90
2019-06-08T09:13:12.549Z,13.90
2019-06-08T09:15:42.391Z,13.90
2019-06-08T09:18:12.626Z,13.90
2019-06-08T09:20:42.416Z,13.80
2019-06-08T09:23:16.331Z,13.80
2019-06-08T09:25:43.665Z,13.70
2019-06-08T09:28:13.473Z,13.70
2019-06-08T09:30:43.549Z,13.50
2019-06-08T09:33:13.338Z,13.30
2019-06-08T09:35:43.377Z,13.20
2019-06-08T09:38:13.294Z,13.00
2019-06-08T09:40:43.350Z,13.00
2019-06-08T09:43:13.540Z,13.10
2019-06-08T09:45:43.483Z,13.20
2019-06-08T09:48:13.539Z,13.30
2019-06-08T09:50:43.329Z,13.30
2019-06-08T09:53:23.733Z,13.40
2019-06-08T09:55:44.720Z,13.50
2019-06-08T09:58:14.508Z,13.50
2019-06-08T10:00:45.219Z,13.60
2019-06-08T10:03:18.387Z,13.60
2019-06-08T10:05:48.406Z,13.60
2019-06-08T10:08:20.547Z,13.60
2019-06-08T10:10:50.318Z,13.60
2019-06-08T10:13:20.541Z,13.40
2019-06-08T10:15:51.614Z,13.30
2019-06-08T10:18:21.970Z,13.30
2019-06-08T10:20:51.766Z,13.40
2019-06-08T10:23:30.875Z,13.70
2019-06-08T10:25:53.020Z,13.90
2019-06-08T10:28:22.847Z,14.00
2019-06-08T10:30:53.091Z,13.90
2019-06-08T10:33:22.900Z,13.80
2019-06-08T10:35:52.768Z,13.60
2019-06-08T10:38:23.147Z,13.40
2019-06-08T10:41:10.163Z,13.30
2019-06-08T10:43:38.586Z,13.10
2019-06-08T10:46:14.711Z,13.00
2019-06-08T10:48:40.355Z,13.00
2019-06-08T10:51:12.796Z,13.00
2019-06-08T10:53:49.240Z,13.10
2019-06-08T10:56:13.010Z,13.10
2019-06-08T10:58:42.877Z,13.20
2019-06-08T11:01:14.311Z,13.40
2019-06-08T11:03:44.125Z,13.60
2019-06-08T11:06:14.245Z,13.70
2019-06-08T11:08:44.034Z,13.70
2019-06-08T11:11:13.849Z,13.80
2019-06-08T11:13:43.683Z,13.70
2019-06-08T11:16:13.992Z,13.50
2019-06-08T11:18:44.048Z,13.50
2019-06-08T11:21:14.705Z,13.50
2019-06-08T11:23:44.499Z,13.40
2019-06-08T11:26:20.873Z,13.40
2019-06-08T11:28:50.953Z,13.40
2019-06-08T11:31:19.842Z,13.50
2019-06-08T11:33:50.163Z,13.50
2019-06-08T11:36:19.997Z,13.50
2019-06-08T11:38:49.813Z,13.40
2019-06-08T11:41:22.836Z,13.40
2019-06-08T11:43:52.779Z,13.30
2019-06-08T11:46:22.571Z,13.20
2019-06-08T11:48:52.401Z,13.20
2019-06-08T11:51:22.370Z,13.20
2019-06-08T11:53:52.795Z,13.10
2019-06-08T11:56:23.426Z,13.10
2019-06-08T11:58:54.819Z,13.10
2019-06-08T12:01:24.602Z,13.10
2019-06-08T12:03:54.689Z,13.10
2019-06-08T12:06:24.525Z,13.10
2019-06-08T12:08:54.314Z,13.00
2019-06-08T12:11:24.673Z,12.90
2019-06-08T12:13:54.505Z,12.80
2019-06-08T12:16:24.362Z,12.80
2019-06-08T12:18:54.425Z,12.70
2019-06-08T12:21:24.253Z,12.70
2019-06-08T12:23:54.058Z,12.70
2019-06-08T12:26:24.682Z,12.70
2019-06-08T12:28:54.590Z,12.70
2019-06-08T12:31:24.457Z,12.60
2019-06-08T12:33:54.725Z,12.60
2019-06-08T12:36:24.624Z,12.60
2019-06-08T12:38:54.418Z,12.70
2019-06-08T12:41:24.482Z,12.80
2019-06-08T12:43:54.310Z,12.80
2019-06-08T12:46:24.107Z,12.90
2019-06-08T12:48:54.218Z,13.10
2019-06-08T12:51:24.048Z,13.10
2019-06-08T12:53:53.842Z,13.20
2019-06-08T12:56:24.351Z,13.30
2019-06-08T12:58:54.230Z,13.30
2019-06-08T13:01:24.029Z,13.40
2019-06-08T13:03:54.282Z,13.50
2019-06-08T13:06:24.112Z,13.60
2019-06-08T13:08:53.900Z,13.60
2019-06-08T13:11:24.586Z,13.60
2019-06-08T13:13:54.438Z,13.60
2019-06-08T13:16:24.792Z,13.70
2019-06-08T13:18:55.723Z,13.80
2019-06-08T13:21:34.525Z,13.80
2019-06-08T13:23:58.153Z,13.80
2019-06-08T13:26:31.016Z,13.90
2019-06-08T13:29:00.570Z,14.00
2019-06-08T13:31:31.691Z,14.00
2019-06-08T13:34:01.542Z,14.10
2019-06-08T13:36:31.388Z,14.30
2019-06-08T13:39:01.438Z,14.40
2019-06-08T13:41:31.441Z,14.30
2019-06-08T13:44:01.278Z,14.40
2019-06-08T13:46:31.598Z,14.40
2019-06-08T13:49:01.463Z,14.50
2019-06-08T13:51:31.286Z,14.60
2019-06-08T13:54:01.117Z,14.70
2019-06-08T13:56:31.524Z,14.60
2019-06-08T13:59:01.385Z,14.60
2019-06-08T14:01:31.175Z,14.30
2019-06-08T14:04:00.972Z,14.20
2019-06-08T14:06:31.061Z,14.00
2019-06-08T14:09:01.013Z,14.00
2019-06-08T14:11:31.038Z,13.80
2019-06-08T14:14:03.439Z,13.80
2019-06-08T14:16:33.503Z,13.80
2019-06-08T14:19:03.440Z,14.00
2019-06-08T14:21:38.797Z,14.20
2019-06-08T14:24:04.737Z,14.40
2019-06-08T14:26:37.380Z,14.50
2019-06-08T14:29:08.321Z,14.50
2019-06-08T14:31:38.711Z,14.60
2019-06-08T14:34:10.398Z,14.50
2019-06-08T14:36:40.968Z,14.60
2019-06-08T14:39:11.604Z,14.70
2019-06-08T14:41:41.848Z,14.70
2019-06-08T14:44:11.680Z,14.70
2019-06-08T14:46:41.650Z,14.80
2019-06-08T14:49:11.575Z,14.90
2019-06-08T14:51:48.892Z,15.10
2019-06-08T14:54:23.503Z,15.10
2019-06-08T14:56:51.208Z,15.10
2019-06-08T14:59:22.210Z,15.20
2019-06-08T15:01:53.475Z,15.20
2019-06-08T15:04:26.910Z,15.10
2019-06-08T15:06:55.562Z,15.00
2019-06-08T15:09:25.609Z,14.90
2019-06-08T15:11:58.009Z,14.90
2019-06-08T15:14:29.395Z,14.80
2019-06-08T15:16:59.152Z,14.80
2019-06-08T15:19:31.198Z,14.80
2019-06-08T15:22:01.031Z,14.60
2019-06-08T15:24:32.315Z,14.60
2019-06-08T15:27:02.404Z,14.50
2019-06-08T15:29:32.950Z,14.40
2019-06-08T15:32:03.487Z,14.40
2019-06-08T15:34:33.383Z,14.40
2019-06-08T15:37:04.375Z,14.30
2019-06-08T15:39:34.354Z,14.30
2019-06-08T15:42:04.898Z,14.30
2019-06-08T15:44:38.138Z,14.20
2019-06-08T15:47:08.198Z,14.10
2019-06-08T15:49:39.117Z,14.00
2019-06-08T15:52:09.318Z,13.90
2019-06-08T15:54:41.041Z,13.90
2019-06-08T15:57:10.564Z,13.80
2019-06-08T15:59:41.791Z,13.70
2019-06-08T16:02:11.847Z,13.80
2019-06-08T16:04:41.647Z,13.80
2019-06-08T16:07:31.268Z,13.80
2019-06-08T16:10:01.783Z,13.80
2019-06-08T16:12:33.173Z,13.70
2019-06-08T16:15:08.989Z,13.60
2019-06-08T16:17:39.854Z,13.50
2019-06-08T16:20:10.486Z,13.60
2019-06-08T16:22:40.319Z,13.70
2019-06-08T16:25:10.156Z,13.70
2019-06-08T16:27:40.314Z,13.70
2019-06-08T16:30:12.986Z,13.60
2019-06-08T16:32:43.660Z,13.50
2019-06-08T16:35:13.455Z,13.40
2019-06-08T16:37:43.589Z,13.40
2019-06-08T16:40:13.594Z,13.40
2019-06-08T16:42:43.462Z,13.40
2019-06-08T16:45:13.599Z,13.40
2019-06-08T16:47:44.317Z,13.40
2019-06-08T16:50:23.982Z,13.30
2019-06-08T16:52:46.414Z,13.30
2019-06-08T16:55:16.207Z,13.30
2019-06-08T16:57:47.267Z,13.30
2019-06-08T17:00:30.808Z,13.30
2019-06-08T17:02:49.083Z,13.30
2019-06-08T17:05:19.662Z,13.20
2019-06-08T17:07:49.498Z,13.10
2019-06-08T17:10:19.292Z,13.00
2019-06-08T17:12:49.623Z,13.00
2019-06-08T17:15:19.883Z,13.00
2019-06-08T17:17:51.566Z,13.00
2019-06-08T17:20:21.351Z,13.00
2019-06-08T17:22:52.176Z,13.00
2019-06-08T17:25:22.942Z,13.00
2019-06-08T17:27:52.728Z,13.10
2019-06-08T17:30:22.552Z,13.10
2019-06-08T17:32:52.924Z,13.10
2019-06-08T17:35:22.685Z,13.20
2019-06-08T17:37:52.523Z,13.20
2019-06-08T17:40:22.630Z,13.30
2019-06-08T17:42:52.430Z,13.40
2019-06-08T17:45:22.318Z,13.50
2019-06-08T17:47:52.378Z,13.60
2019-06-08T17:50:22.178Z,13.70
2019-06-08T17:52:51.993Z,13.70
2019-06-08T17:55:22.226Z,13.80
2019-06-08T17:57:53.693Z,13.90
2019-06-08T18:00:24.495Z,13.90
2019-06-08T18:02:57.732Z,13.90
2019-06-08T18:05:28.385Z,13.90
2019-06-08T18:07:57.967Z,13.90
2019-06-08T18:10:28.448Z,13.90
2019-06-08T18:12:58.895Z,14.00
2019-06-08T18:15:29.543Z,14.00
2019-06-08T18:17:59.330Z,14.00
2019-06-08T18:20:29.242Z,14.00
2019-06-08T18:22:59.081Z,14.10
2019-06-08T18:25:28.900Z,14.10
2019-06-08T18:28:09.267Z,14.00
2019-06-08T18:30:30.698Z,14.00
2019-06-08T18:33:00.516Z,14.00
2019-06-08T18:35:30.301Z,13.80
2019-06-08T18:38:00.142Z,13.70
2019-06-08T18:40:30.063Z,13.60
2019-06-08T18:43:00.094Z,13.60
2019-06-08T18:45:30.453Z,13.70
2019-06-08T18:48:00.272Z,13.60
2019-06-08T18:50:30.036Z,13.60
2019-06-08T18:52:59.878Z,13.70
2019-06-08T18:55:29.847Z,13.70
2019-06-08T18:57:59.910Z,13.70
2019-06-08T19:00:43.384Z,13.70
2019-06-08T19:03:12.270Z,13.60
2019-06-08T19:05:45.245Z,13.60
2019-06-08T19:08:14.317Z,13.60
2019-06-08T19:10:46.162Z,13.60
2019-06-08T19:13:17.950Z,13.60
2019-06-08T19:15:52.748Z,13.60
2019-06-08T19:18:20.808Z,13.50
2019-06-08T19:20:52.996Z,13.50
2019-06-08T19:23:22.279Z,13.50
2019-06-08T19:25:52.594Z,13.40
2019-06-08T19:28:35.309Z,13.40
2019-06-08T19:30:53.835Z,13.30
2019-06-08T19:33:23.710Z,13.30
2019-06-08T19:35:54.171Z,13.30
2019-06-08T19:38:27.706Z,13.20
2019-06-08T19:40:57.308Z,13.20
2019-06-08T19:43:27.883Z,13.10
2019-06-08T19:45:58.489Z,13.10
2019-06-08T19:48:31.216Z,13.00
2019-06-08T19:51:00.069Z,13.00
2019-06-08T19:53:29.897Z,13.00
2019-06-08T19:56:00.167Z,13.00
2019-06-08T19:58:30.055Z,12.90
2019-06-08T20:00:59.955Z,12.90
2019-06-08T20:03:30.173Z,12.90
2019-06-08T20:06:00.017Z,12.90
2019-06-08T20:08:29.841Z,12.90
2019-06-08T20:10:59.801Z,12.90
2019-06-08T20:13:29.946Z,12.90
2019-06-08T20:16:02.265Z,12.90
2019-06-08T20:18:31.438Z,12.80
2019-06-08T20:21:01.241Z,12.80
2019-06-08T20:23:31.837Z,12.80
2019-06-08T20:26:02.905Z,12.80
2019-06-08T20:28:32.724Z,12.80
2019-06-08T20:31:02.765Z,12.70
2019-06-08T20:33:32.577Z,12.70
2019-06-08T20:36:02.489Z,12.60
2019-06-08T20:38:38.465Z,12.60
2019-06-08T20:41:03.869Z,12.70
2019-06-08T20:43:34.138Z,12.70
2019-06-08T20:46:05.004Z,12.60
2019-06-08T20:48:34.878Z,12.70
2019-06-08T20:51:04.754Z,12.70
2019-06-08T20:53:34.726Z,12.70
2019-06-08T20:56:04.713Z,12.70
2019-06-08T20:58:37.161Z,12.70
2019-06-08T21:01:07.487Z,12.70
2019-06-08T21:03:37.812Z,12.70
2019-06-08T21:06:07.804Z,12.70
2019-06-08T21:08:37.605Z,12.70
2019-06-08T21:11:08.509Z,12.70
2019-06-08T21:13:39.054Z,12.70
2019-06-08T21:16:09.126Z,12.70
2019-06-08T21:18:38.928Z,12.70
2019-06-08T21:21:09.123Z,12.70
2019-06-08T21:23:40.185Z,12.60
2019-06-08T21:26:10.294Z,12.60
2019-06-08T21:28:40.089Z,12.60
2019-06-08T21:31:09.922Z,12.60
2019-06-08T21:33:39.908Z,12.60
2019-06-08T21:36:09.818Z,12.60
2019-06-08T21:38:39.999Z,12.60
2019-06-08T21:41:09.928Z,12.60
2019-06-08T21:43:39.718Z,12.50
2019-06-08T21:46:09.752Z,12.50
2019-06-08T21:48:39.744Z,12.50
2019-06-08T21:51:09.813Z,12.40
2019-06-08T21:53:39.647Z,12.30
2019-06-08T21:56:09.758Z,12.30
2019-06-08T21:58:39.794Z,12.30
2019-06-08T22:01:11.402Z,12.30
2019-06-08T22:03:42.034Z,12.30
2019-06-08T22:06:11.834Z,12.30
2019-06-08T22:08:41.657Z,12.20
2019-06-08T22:11:12.090Z,12.20
2019-06-08T22:13:41.890Z,12.20
2019-06-08T22:16:12.802Z,12.10
2019-06-08T22:18:42.597Z,12.10
2019-06-08T22:21:13.214Z,12.10
2019-06-08T22:23:43.049Z,12.00
2019-06-08T22:26:12.833Z,12.00
2019-06-08T22:28:43.263Z,12.00
2019-06-08T22:31:13.093Z,11.90
2019-06-08T22:33:42.895Z,11.90
2019-06-08T22:36:13.073Z,11.90
2019-06-08T22:38:42.916Z,11.90
2019-06-08T22:41:12.706Z,11.90
2019-06-08T22:43:42.898Z,11.90
2019-06-08T22:46:12.893Z,11.90
2019-06-08T22:48:42.684Z,11.90
2019-06-08T22:51:12.710Z,11.80
2019-06-08T22:53:42.550Z,11.80
2019-06-08T22:56:12.355Z,11.70
2019-06-08T22:58:42.893Z,11.70
2019-06-08T23:01:13.926Z,11.70
2019-06-08T23:03:43.724Z,11.60
2019-06-08T23:06:13.665Z,11.60
2019-06-08T23:08:43.599Z,11.50
2019-06-08T23:11:13.458Z,11.40
2019-06-08T23:13:43.438Z,11.40
2019-06-08T23:16:13.646Z,11.40
2019-06-08T23:18:43.445Z,11.40
2019-06-08T23:21:13.372Z,11.40
2019-06-08T23:23:43.353Z,11.30
2019-06-08T23:26:13.189Z,11.20
2019-06-08T23:28:43.220Z,11.20
2019-06-08T23:31:21.640Z,11.10
2019-06-08T23:33:44.695Z,11.10
2019-06-08T23:38:48.008Z,10.90
2019-06-08T23:41:18.197Z,10.90
2019-06-08T23:43:48.322Z,10.90
2019-06-08T23:46:18.310Z,10.90
2019-06-08T23:48:48.618Z,10.80
2019-06-08T23:51:18.748Z,10.80
2019-06-08T23:53:48.570Z,10.80
2019-06-08T23:56:18.462Z,10.90
2019-06-08T23:58:48.490Z,11.00
